createdAt,value
2018-02-07T11:54:54.060Z,2900.00
2018-02-07T11:56:02.966Z,2928.00
2018-02-07T11:57:05.597Z,2948.00
2018-02-07T12:00:13.062Z,2944.00
2018-02-07T12:02:42.602Z,2892.00
2018-02-07T12:03:42.593Z,2868.00
2018-02-07T12:05:36.037Z,2844.00
2018-02-07T12:06:35.977Z,2848.00
2018-02-07T12:08:29.358Z,2900.00
2018-02-07T12:09:29.366Z,2948.00
2018-02-07T12:11:22.311Z,3048.00
2018-02-07T12:12:22.247Z,3088.00
2018-02-07T12:14:15.416Z,3068.00
2018-02-07T12:15:15.404Z,2996.00
2018-02-07T12:17:08.847Z,2868.00
2018-02-07T12:18:08.868Z,2808.00
2018-02-07T12:20:02.154Z,2704.00
2018-02-07T12:21:02.155Z,2696.00
2018-02-07T12:22:55.572Z,2600.00
2018-02-07T12:23:55.526Z,2696.00
2018-02-07T12:25:48.400Z,2912.00
2018-02-07T12:26:48.386Z,2924.00
2018-02-07T12:28:41.320Z,2416.00
2018-02-07T12:29:41.261Z,2284.00
2018-02-07T12:31:34.638Z,2172.00
2018-02-07T12:32:34.631Z,2140.00
2018-02-07T12:34:27.566Z,2252.00
2018-02-07T12:35:27.501Z,2220.00
2018-02-07T12:37:20.386Z,2280.00
2018-02-07T12:38:20.392Z,2244.00
2018-02-07T12:41:14.054Z,2184.00
2018-02-07T12:43:06.941Z,2140.00
2018-02-07T12:44:06.944Z,2108.00
2018-02-07T12:46:00.343Z,2072.00
2018-02-07T12:47:00.337Z,2060.00
2018-02-07T12:48:53.680Z,2036.00
2018-02-07T12:49:53.695Z,2020.00
2018-02-07T12:51:46.843Z,2000.00
2018-02-07T12:52:46.789Z,1992.00
2018-02-07T12:54:39.953Z,1980.00
2018-02-07T12:55:39.948Z,1976.00
2018-02-07T12:57:33.666Z,1944.00
2018-02-07T12:58:33.637Z,1940.00
2018-02-07T13:00:26.494Z,1916.00
2018-02-07T13:01:26.538Z,1912.00
2018-02-07T13:03:19.917Z,1904.00
2018-02-07T13:04:19.855Z,1892.00
2018-02-07T13:06:12.798Z,1888.00
2018-02-07T13:07:12.824Z,1884.00
2018-02-07T13:09:06.742Z,1868.00
2018-02-07T13:10:06.671Z,1868.00
2018-02-07T13:12:00.039Z,1864.00
2018-02-07T13:13:00.037Z,1856.00
2018-02-07T13:14:54.488Z,1844.00
2018-02-07T13:17:47.313Z,1852.00
2018-02-07T13:18:47.284Z,1848.00
2018-02-07T13:20:40.202Z,1840.00
2018-02-07T13:21:40.152Z,1832.00
2018-02-07T13:23:33.033Z,1816.00
2018-02-07T13:24:33.021Z,1812.00
2018-02-07T13:26:27.064Z,1812.00
2018-02-07T13:27:26.866Z,1812.00
2018-02-07T13:29:19.746Z,1816.00
2018-02-07T13:30:19.732Z,1812.00
2018-02-07T13:32:13.154Z,1812.00
2018-02-07T13:33:13.105Z,1808.00
2018-02-07T13:35:06.269Z,1800.00
2018-02-07T13:36:06.261Z,1800.00
2018-02-07T13:37:59.212Z,1800.00
2018-02-07T13:38:59.164Z,1784.00
2018-02-07T13:43:45.971Z,1764.00
2018-02-07T13:44:46.096Z,1748.00
2018-02-07T13:46:38.807Z,1740.00
2018-02-07T13:47:38.795Z,1732.00
2018-02-07T13:49:31.735Z,1724.00
2018-02-07T13:50:31.693Z,1712.00
2018-02-07T13:52:24.872Z,1704.00
2018-02-07T13:53:24.875Z,1696.00
2018-02-07T13:55:18.319Z,1688.00
2018-02-07T13:59:04.079Z,1664.00
2018-02-07T14:01:57.837Z,1652.00
2018-02-07T14:04:51.100Z,1636.00
2018-02-07T14:05:51.101Z,1632.00
2018-02-07T14:07:44.022Z,1620.00
2018-02-07T14:08:34.860Z,1604.00
2018-02-07T14:09:34.886Z,1596.00
